Time;durP1;ratioP1;P1;durP2;ratioP2;P2;SDS_P1;SDS_P2;PMS_P1;PMS_P2;Temp;Humidity;BMP_temperature;BMP_pressure;BME280_temperature;BME280_humidity;BME280_pressure;Samples;Min_cycle;Max_cycle;Signal;HPM_P1;HPM_P2
2022/12/03 00:02:22;;;;;;;5.00;3.90;;;;;;;-0.87;100.00;101228.84;5053992;28;20233;-76
2022/12/03 00:04:47;;;;;;;5.60;4.57;;;;;;;-0.84;100.00;101233.81;5052703;28;20167;-76
2022/12/03 00:07:12;;;;;;;2.50;2.20;;;;;;;-0.82;100.00;101225.56;5053009;28;20176;-76
2022/12/03 00:09:37;;;;;;;11.43;8.27;;;;;;;-0.85;100.00;101231.34;5052415;28;20193;-75
2022/12/03 00:12:03;;;;;;;21.10;11.07;;;;;;;-0.91;100.00;101227.66;5052629;28;20171;-75
2022/12/03 00:14:28;;;;;;;2.93;2.13;;;;;;;-0.91;100.00;101227.66;5052537;28;20532;-76
2022/12/03 00:16:55;;;;;;;5.97;2.37;;;;;;;-0.91;100.00;101227.66;5052444;28;20611;-75
2022/12/03 00:19:20;;;;;;;27.20;6.93;;;;;;;-0.96;100.00;101222.94;5052564;28;20462;-75
2022/12/03 00:21:45;;;;;;;15.57;3.60;;;;;;;-0.92;100.00;101228.69;5052463;28;20586;-75
2022/12/03 00:24:10;;;;;;;5.60;5.13;;;;;;;-0.90;100.00;101222.06;5052321;28;20179;-75
2022/12/03 00:26:36;;;;;;;28.53;12.87;;;;;;;-0.93;100.00;101227.06;5052356;28;20639;-75
2022/12/03 00:29:01;;;;;;;5.07;4.77;;;;;;;-0.91;100.00;101222.28;5052245;28;20294;-75
2022/12/03 00:31:26;;;;;;;3.80;3.50;;;;;;;-0.92;100.00;101226.00;5052237;28;20176;-75
2022/12/03 00:33:52;;;;;;;25.43;6.80;;;;;;;-0.95;100.00;101223.78;5052155;28;20560;-76
2022/12/03 00:36:19;;;;;;;1.97;1.87;;;;;;;-0.94;100.00;101234.28;5052159;28;20229;-75
2022/12/03 00:38:44;;;;;;;12.37;6.33;;;;;;;-0.94;100.00;101228.09;5052120;28;20250;-76
2022/12/03 00:41:10;;;;;;;14.57;4.50;;;;;;;-0.92;100.00;101228.69;5051758;28;20421;-75
2022/12/03 00:43:35;;;;;;;12.23;5.23;;;;;;;-0.94;100.00;101231.59;5051883;28;20198;-75
2022/12/03 00:46:00;;;;;;;10.10;5.87;;;;;;;-0.97;100.00;101234.72;5051969;28;20179;-75
2022/12/03 00:48:25;;;;;;;20.43;7.03;;;;;;;-1.00;100.00;101223.59;5051893;28;20219;-75
2022/12/03 00:50:51;;;;;;;23.50;7.60;;;;;;;-1.01;100.00;101228.16;5051893;28;20180;-75
2022/12/03 00:53:16;;;;;;;4.03;2.60;;;;;;;-1.01;100.00;101227.34;5052019;28;20186;-75
2022/12/03 00:55:42;;;;;;;13.87;9.83;;;;;;;-1.03;100.00;101224.00;5051742;28;20176;-75
2022/12/03 00:58:08;;;;;;;6.50;4.17;;;;;;;-1.03;100.00;101226.69;5051798;28;20205;-75
2022/12/03 01:00:33;;;;;;;7.17;4.27;;;;;;;-1.01;100.00;101235.38;5051784;28;20224;-75
2022/12/03 01:02:59;;;;;;;6.83;4.83;;;;;;;-0.97;100.00;101233.91;5051553;28;20504;-75
2022/12/03 01:05:24;;;;;;;11.03;6.60;;;;;;;-1.04;100.00;101230.41;5033849;28;20194;-75
2022/12/03 01:07:50;;;;;;;10.13;6.10;;;;;;;-1.04;100.00;101236.59;5051468;28;20238;-75
2022/12/03 01:10:15;;;;;;;7.20;4.93;;;;;;;-1.04;100.00;101236.59;5051493;28;20585;-75
2022/12/03 01:12:41;;;;;;;4.10;3.63;;;;;;;-1.04;100.00;101233.91;5051231;28;20186;-75
2022/12/03 01:15:06;;;;;;;5.83;5.10;;;;;;;-1.07;100.00;101234.34;5051548;28;20179;-75
2022/12/03 01:17:32;;;;;;;8.70;5.47;;;;;;;-1.09;100.00;101239.13;5051598;28;20194;-75
2022/12/03 01:19:58;;;;;;;29.70;10.20;;;;;;;-1.14;100.00;101246.16;5033414;28;20210;-75
2022/12/03 01:22:24;;;;;;;15.90;7.50;;;;;;;-1.17;100.00;101239.34;5050789;28;20178;-75
2022/12/03 01:24:49;;;;;;;22.37;11.57;;;;;;;-1.18;100.00;101250.28;5051011;28;20190;-75
2022/12/03 01:27:14;;;;;;;8.23;3.30;;;;;;;-1.15;100.00;101247.22;5051054;28;20430;-75
2022/12/03 01:29:40;;;;;;;6.50;6.03;;;;;;;-1.14;100.00;101249.69;5051439;28;20188;-75
2022/12/03 01:32:18;;;;;;;2.13;2.07;;;;;;;-1.17;100.00;101243.91;5051062;28;20175;-76
2022/12/03 01:34:54;;;;;;;8.13;3.97;;;;;;;-1.17;100.00;101244.72;5050838;28;20171;-75
2022/12/03 01:37:22;;;;;;;19.47;9.13;;;;;;;-1.16;100.00;101245.53;5050977;28;20425;-75
2022/12/03 01:39:48;;;;;;;2.33;2.13;;;;;;;-1.19;100.00;101238.75;5051004;28;20434;-75
2022/12/03 01:42:21;;;;;;;7.10;3.97;;;;;;;-1.16;100.00;101246.34;5032756;28;20478;-75
2022/12/03 01:44:49;;;;;;;17.53;8.23;;;;;;;-1.18;100.00;101242.25;5050829;28;20170;-75
2022/12/03 01:47:17;;;;;;;20.10;7.63;;;;;;;-1.21;100.00;101243.50;5050718;28;20778;-75
2022/12/03 01:49:47;;;;;;;11.67;5.93;;;;;;;-1.23;100.00;101246.41;5032916;28;20551;-75
2022/12/03 01:52:16;;;;;;;21.67;11.63;;;;;;;-1.21;100.00;101243.50;5050874;28;20499;-75
2022/12/03 01:54:46;;;;;;;16.70;6.63;;;;;;;-1.22;100.00;101244.53;5050669;28;20454;-75
2022/12/03 01:57:25;;;;;;;6.73;6.23;;;;;;;-1.26;100.00;101241.47;5050988;28;20421;-75
2022/12/03 01:59:51;;;;;;;36.70;10.97;;;;;;;-1.26;100.00;101243.34;5032827;28;20429;-75
2022/12/03 02:02:28;;;;;;;1.27;1.20;;;;;;;-1.27;100.00;101242.50;5050757;28;20425;-75
2022/12/03 02:04:54;;;;;;;22.63;13.07;;;;;;;-1.27;100.00;101242.50;5050490;28;20429;-75
2022/12/03 02:07:31;;;;;;;4.83;3.93;;;;;;;-1.24;100.00;101239.41;5050556;28;20417;-75
2022/12/03 02:09:59;;;;;;;11.27;6.70;;;;;;;-1.25;100.00;101237.75;5050556;28;20698;-75
2022/12/03 02:12:49;;;;;;;21.37;8.93;;;;;;;-1.28;100.00;101243.56;5050374;28;20432;-75
2022/12/03 02:15:14;;;;;;;17.90;6.93;;;;;;;-1.28;100.00;101243.56;5050623;28;20414;-75
2022/12/03 02:17:41;;;;;;;20.17;8.13;;;;;;;-1.26;100.00;101249.53;5050460;28;20429;-75
2022/12/03 02:20:09;;;;;;;10.37;4.80;;;;;;;-1.21;100.00;101249.69;5050511;28;20186;-74
2022/12/03 02:22:54;;;;;;;9.27;6.57;;;;;;;-1.20;100.00;101255.88;5050396;28;20516;-75
2022/12/03 02:25:23;;;;;;;10.43;5.77;;;;;;;-1.17;100.00;101252.75;5050493;28;20417;-75
2022/12/03 02:27:48;;;;;;;12.23;9.17;;;;;;;-1.21;100.00;101256.91;5050512;28;20538;-75
2022/12/03 02:30:17;;;;;;;1.70;1.57;;;;;;;-1.15;100.00;101252.56;5032575;28;20425;-75
2022/12/03 02:32:43;;;;;;;22.83;3.90;;;;;;;-1.14;100.00;101259.56;5033896;28;20227;-75
2022/12/03 02:35:13;;;;;;;6.07;3.70;;;;;;;-1.21;100.00;101248.88;5054252;28;20430;-75
2022/12/03 02:37:40;;;;;;;15.10;7.80;;;;;;;-1.24;100.00;101254.66;5054222;28;20175;-75
2022/12/03 02:40:09;;;;;;;8.33;3.60;;;;;;;-1.21;100.00;101255.06;5054135;28;20473;-74
2022/12/03 02:42:35;;;;;;;16.77;8.37;;;;;;;-1.24;100.00;101251.97;5053603;28;20417;-75
2022/12/03 02:45:06;;;;;;;5.77;5.30;;;;;;;-1.26;100.00;101252.19;5054268;28;20413;-75
2022/12/03 02:47:43;;;;;;;36.90;16.27;;;;;;;-1.31;100.00;101254.69;5036237;28;20468;-75
2022/12/03 02:50:11;;;;;;;13.63;5.43;;;;;;;-1.25;100.00;101245.81;5054157;28;20454;-75
2022/12/03 02:52:37;;;;;;;10.93;7.13;;;;;;;-1.26;100.00;101246.00;5053924;28;20896;-75
2022/12/03 02:55:05;;;;;;;8.70;6.33;;;;;;;-1.26;100.00;101252.19;5054012;28;20900;-75
2022/12/03 02:57:32;;;;;;;6.13;5.50;;;;;;;-1.23;100.00;101246.41;5036042;28;20438;-75
2022/12/03 02:59:58;;;;;;;9.80;4.73;;;;;;;-1.21;100.00;101247.00;5053900;28;20783;-75
2022/12/03 03:02:23;;;;;;;6.00;5.73;;;;;;;-1.21;100.00;101240.81;5036012;28;20452;-75
2022/12/03 03:04:49;;;;;;;10.67;4.87;;;;;;;-1.24;100.00;101239.41;5053775;28;20481;-75
2022/12/03 03:07:15;;;;;;;15.73;7.70;;;;;;;-1.26;100.00;101246.84;5053712;28;20210;-75
2022/12/03 03:09:41;;;;;;;14.07;7.17;;;;;;;-1.28;100.00;101240.06;5053727;28;20513;-75
2022/12/03 03:12:06;;;;;;;5.33;4.83;;;;;;;-1.28;100.00;101238.19;5053576;28;20210;-75
2022/12/03 03:14:32;;;;;;;22.53;6.63;;;;;;;-1.27;100.00;101239.84;5053563;28;20168;-75
2022/12/03 03:16:57;;;;;;;10.33;3.70;;;;;;;-1.26;100.00;101240.66;5053831;28;20793;-75
2022/12/03 03:19:24;;;;;;;3.47;2.97;;;;;;;-1.24;100.00;101244.75;5053545;28;20301;-75
2022/12/03 03:21:51;;;;;;;8.27;7.00;;;;;;;-1.26;100.00;101241.47;5035495;28;20182;-75
2022/12/03 03:24:17;;;;;;;5.30;2.73;;;;;;;-1.26;100.00;101238.78;5053305;28;20414;-75
2022/12/03 03:26:42;;;;;;;27.73;9.33;;;;;;;-1.31;100.00;101237.78;5053731;28;20795;-75
2022/12/03 03:29:08;;;;;;;14.53;9.27;;;;;;;-1.30;100.00;101240.28;5053226;28;20209;-75
2022/12/03 03:31:33;;;;;;;7.57;5.67;;;;;;;-1.30;100.00;101239.44;5035371;28;20175;-75
2022/12/03 03:33:59;;;;;;;3.90;3.70;;;;;;;-1.29;100.00;101239.22;5053383;28;20171;-75
2022/12/03 03:36:25;;;;;;;19.67;9.30;;;;;;;-1.30;100.00;101237.59;5053117;28;20627;-75
2022/12/03 03:38:50;;;;;;;3.23;2.93;;;;;;;-1.26;100.00;101236.13;5053254;28;20229;-75
2022/12/03 03:41:17;;;;;;;10.73;3.17;;;;;;;-1.23;100.00;101234.88;5052564;28;20417;-75
2022/12/03 03:43:44;;;;;;;14.03;5.70;;;;;;;-1.23;100.00;101235.69;5052330;28;20172;-75
2022/12/03 03:46:10;;;;;;;1.67;1.60;;;;;;;-1.18;100.00;101229.66;5052949;28;20474;-75
2022/12/03 03:48:36;;;;;;;5.83;3.43;;;;;;;-1.18;100.00;101229.66;5053179;28;20795;-75
2022/12/03 03:51:07;;;;;;;3.57;3.27;;;;;;;-1.18;100.00;101223.47;5053140;28;20829;-75
2022/12/03 03:53:34;;;;;;;0.67;0.67;;;;;;;-1.18;100.00;101213.59;5052737;28;20418;-75
2022/12/03 03:55:59;;;;;;;12.17;7.03;;;;;;;-1.23;100.00;101229.50;5053090;28;20414;-75
2022/12/03 03:58:25;;;;;;;3.90;3.07;;;;;;;-1.18;100.00;101223.47;5053113;28;20959;-75
2022/12/03 04:00:50;;;;;;;3.80;2.33;;;;;;;-1.20;100.00;101227.22;5052730;28;20528;-75
2022/12/03 04:03:16;;;;;;;4.20;3.90;;;;;;;-1.21;100.00;101214.03;5052640;28;20205;-75
2022/12/03 04:05:41;;;;;;;18.63;8.10;;;;;;;-1.28;100.00;101218.59;5052888;28;20191;-75
2022/12/03 04:08:06;;;;;;;18.23;16.90;;;;;;;-1.26;100.00;101220.03;5052468;28;20588;-75
2022/12/03 04:13:15;;;;;;;9.47;5.30;;;;;;;-1.32;100.00;101217.38;5052311;28;20684;-75
2022/12/03 04:15:41;;;;;;;13.27;6.10;;;;;;;-1.37;100.00;101217.19;5052434;28;20414;-75
2022/12/03 04:20:50;;;;;;;5.23;4.33;;;;;;;-1.36;100.00;101202.75;5052310;28;20682;-75
2022/12/03 04:23:15;;;;;;;10.03;5.70;;;;;;;-1.36;100.00;101208.94;5052780;28;20458;-75
2022/12/03 04:36:36;;;;;;;16.13;7.40;;;;;;;-1.40;100.00;101210.41;5052028;28;20400;-75
2022/12/03 04:39:01;;;;;;;16.00;8.53;;;;;;;-1.40;100.00;101207.72;5052070;28;20508;-75
2022/12/03 04:41:26;;;;;;;17.77;7.83;;;;;;;-1.40;100.00;101207.72;5052033;28;20175;-75
2022/12/03 04:44:37;;;;;;;2.50;2.30;;;;;;;-1.41;100.00;101190.00;5052031;28;20211;-75
2022/12/03 04:46:37;;;;;;;18.77;8.43;;;;;;;-1.44;100.00;101195.81;5044475;28;20187;-76
2022/12/03 04:49:03;;;;;;;26.43;10.13;;;;;;;-1.42;100.00;101203.63;5051811;28;20836;-75
2022/12/03 04:51:28;;;;;;;10.40;3.73;;;;;;;-1.42;100.00;101193.72;5051740;28;20195;-75
2022/12/03 04:53:53;;;;;;;5.47;2.60;;;;;;;-1.40;100.00;101190.84;5051696;28;20841;-75
2022/12/03 04:56:18;;;;;;;10.67;4.73;;;;;;;-1.40;100.00;101199.69;5032981;28;20182;-76
2022/12/03 04:58:44;;;;;;;10.03;8.13;;;;;;;-1.40;100.00;101194.34;5051938;28;20187;-75
2022/12/03 05:01:09;;;;;;;4.77;4.33;;;;;;;-1.38;100.00;101196.78;5051566;28;20175;-75
2022/12/03 05:03:34;;;;;;;12.37;6.83;;;;;;;-1.40;100.00;101202.38;5051552;28;20175;-75
2022/12/03 05:05:59;;;;;;;9.73;4.00;;;;;;;-1.41;100.00;101194.56;5051448;28;20250;-75
2022/12/03 05:08:25;;;;;;;5.40;3.70;;;;;;;-1.45;100.00;101199.50;5051854;28;20210;-75
2022/12/03 05:10:50;;;;;;;14.97;6.47;;;;;;;-1.46;100.00;101197.03;5051382;28;20197;-76
2022/12/03 05:13:15;;;;;;;16.97;6.33;;;;;;;-1.48;100.00;101199.09;5051208;28;20233;-75
2022/12/03 05:15:40;;;;;;;7.97;5.50;;;;;;;-1.48;100.00;101194.56;5051629;28;20214;-76
2022/12/03 05:18:06;;;;;;;10.87;4.93;;;;;;;-1.46;100.00;101203.22;5051169;28;20175;-75
2022/12/03 05:20:43;;;;;;;6.87;1.40;;;;;;;-1.45;100.00;101199.50;5051146;28;20199;-76
2022/12/03 05:23:10;;;;;;;12.17;6.67;;;;;;;-1.48;100.00;101199.94;5051021;28;20189;-76
2022/12/03 05:25:35;;;;;;;4.90;3.83;;;;;;;-1.51;100.00;101201.19;5051391;28;20414;-75
2022/12/03 05:28:01;;;;;;;2.83;2.30;;;;;;;-1.51;100.00;101203.84;5051059;28;20868;-75
2022/12/03 05:30:26;;;;;;;4.30;4.03;;;;;;;-1.51;100.00;101203.84;5051087;28;20187;-76
2022/12/03 05:32:52;;;;;;;17.83;6.47;;;;;;;-1.48;100.00;101199.94;5051235;28;20179;-76
2022/12/03 05:35:17;;;;;;;8.57;5.30;;;;;;;-1.52;100.00;101201.41;5050894;28;20180;-75
2022/12/03 05:37:42;;;;;;;8.40;6.63;;;;;;;-1.54;100.00;101206.97;5050928;28;20182;-75
2022/12/03 05:40:08;;;;;;;10.70;7.00;;;;;;;-1.52;100.00;101199.53;5050869;28;20183;-75
2022/12/03 05:42:52;;;;;;;24.83;11.50;;;;;;;-1.53;100.00;101199.75;5050318;28;20183;-75
2022/12/03 05:45:24;;;;;;;1.40;1.33;;;;;;;-1.54;100.00;101206.97;5051163;28;20408;-76
2022/12/03 05:47:55;;;;;;;29.10;9.70;;;;;;;-1.58;100.00;101207.63;5050799;28;20541;-75
2022/12/03 05:50:22;;;;;;;7.17;6.43;;;;;;;-1.60;100.00;101209.66;5050892;28;20422;-75
2022/12/03 05:52:48;;;;;;;4.27;2.30;;;;;;;-1.60;100.00;101198.94;5050538;28;20453;-75
2022/12/03 05:55:14;;;;;;;6.93;6.33;;;;;;;-1.65;100.00;101199.59;5050894;28;20441;-75
2022/12/03 05:57:40;;;;;;;20.43;8.77;;;;;;;-1.66;100.00;101202.47;5032683;28;20182;-75
2022/12/03 06:00:12;;;;;;;14.73;8.47;;;;;;;-1.63;100.00;101196.69;5051874;28;20425;-75
2022/12/03 06:02:37;;;;;;;6.30;5.80;;;;;;;-1.62;100.00;101195.66;5053076;28;20175;-75
2022/12/03 06:05:02;;;;;;;19.10;10.03;;;;;;;-1.67;100.00;101204.34;5052540;28;20480;-75
2022/12/03 06:07:28;;;;;;;4.27;3.93;;;;;;;-1.63;100.00;101200.19;5050455;28;20657;-76
2022/12/03 06:09:53;;;;;;;16.43;7.70;;;;;;;-1.61;100.00;101190.09;5050473;28;20649;-76
2022/12/03 06:12:18;;;;;;;12.80;4.03;;;;;;;-1.56;100.00;101202.88;5050439;28;20670;-76
2022/12/03 06:14:44;;;;;;;5.90;5.53;;;;;;;-1.58;100.00;101207.63;5050543;28;20338;-76
2022/12/03 06:17:09;;;;;;;5.23;3.93;;;;;;;-1.62;100.00;101195.66;5050573;28;20250;-75
2022/12/03 06:19:34;;;;;;;11.20;5.60;;;;;;;-1.60;100.00;101206.97;5050418;28;20244;-75
2022/12/03 06:22:00;;;;;;;7.47;6.93;;;;;;;-1.59;100.00;101208.63;5050612;28;20178;-76
2022/12/03 06:24:25;;;;;;;15.37;5.10;;;;;;;-1.56;100.00;101202.88;5050262;28;20183;-75
2022/12/03 06:26:50;;;;;;;14.80;6.23;;;;;;;-1.58;100.00;101210.28;5050669;28;20182;-76
2022/12/03 06:29:16;;;;;;;9.53;1.83;;;;;;;-1.59;100.00;101205.94;5032481;28;20681;-76
2022/12/03 06:31:41;;;;;;;3.87;3.37;;;;;;;-1.57;100.00;101201.22;5050408;28;20228;-76
2022/12/03 06:34:06;;;;;;;18.70;10.03;;;;;;;-1.63;100.00;101207.41;5050231;28;20254;-75
2022/12/03 06:36:31;;;;;;;16.73;8.17;;;;;;;-1.61;100.00;101200.81;5050290;28;20287;-76
2022/12/03 06:38:57;;;;;;;5.63;3.77;;;;;;;-1.59;100.00;101203.25;5050397;28;20171;-76
2022/12/03 06:41:22;;;;;;;21.60;8.40;;;;;;;-1.59;100.00;101208.63;5049667;28;20185;-76
2022/12/03 06:43:47;;;;;;;48.20;18.30;;;;;;;-1.66;100.00;101207.84;5050157;28;20584;-76
2022/12/03 06:46:13;;;;;;;16.47;5.87;;;;;;;-1.63;100.00;101213.59;5050419;28;20179;-76
2022/12/03 06:48:38;;;;;;;31.33;11.07;;;;;;;-1.67;100.00;101204.34;5050246;28;20238;-76
2022/12/03 06:51:03;;;;;;;13.03;11.57;;;;;;;-1.65;100.00;101201.44;5050449;28;20656;-76
2022/12/03 06:53:28;;;;;;;9.00;7.20;;;;;;;-1.64;100.00;101208.44;5050035;28;20224;-76
2022/12/03 06:55:54;;;;;;;8.93;5.60;;;;;;;-1.61;100.00;101213.38;5032291;28;20262;-76
2022/12/03 06:58:19;;;;;;;4.17;3.60;;;;;;;-1.63;100.00;101212.78;5050296;28;20615;-76
2022/12/03 07:00:44;;;;;;;15.67;8.60;;;;;;;-1.67;100.00;101207.03;5050090;28;20179;-76
2022/12/03 07:03:10;;;;;;;16.13;7.03;;;;;;;-1.68;100.00;101205.38;5049896;28;20203;-76
2022/12/03 07:05:35;;;;;;;13.00;4.33;;;;;;;-1.68;100.00;101209.91;5050050;28;20176;-76
2022/12/03 07:08:00;;;;;;;56.30;22.00;;;;;;;-1.75;100.00;101207.25;5049805;28;20210;-78
2022/12/03 07:10:26;;;;;;;42.07;18.53;;;;;;;-1.75;100.00;101193.03;5048811;28;20186;-76
2022/12/03 07:12:51;;;;;;;49.23;18.20;;;;;;;-1.76;100.00;101194.06;5049734;28;20187;-77
2022/12/03 07:15:16;;;;;;;11.63;8.83;;;;;;;-1.73;100.00;101199.84;5050220;28;20175;-77
2022/12/03 07:17:42;;;;;;;15.93;10.23;;;;;;;-1.75;100.00;101195.72;5049901;28;20183;-81
2022/12/03 07:20:08;;;;;;;10.07;4.13;;;;;;;-1.72;100.00;101193.44;5051944;28;20175;-81
2022/12/03 07:22:33;;;;;;;8.77;4.97;;;;;;;-1.71;100.00;101186.25;5053572;28;20199;-85
2022/12/03 07:24:59;;;;;;;13.33;9.53;;;;;;;-1.67;100.00;101192.81;5053501;28;20836;-86
2022/12/03 07:27:24;;;;;;;42.17;16.47;;;;;;;-1.78;100.00;101180.88;5053386;28;20184;-84
2022/12/03 07:29:49;;;;;;;19.30;9.93;;;;;;;-1.75;100.00;101193.03;5053660;28;20175;-86
2022/12/03 07:32:15;;;;;;;33.73;12.97;;;;;;;-1.79;100.00;101187.28;5053808;28;20626;-84
2022/12/03 07:34:40;;;;;;;17.43;6.33;;;;;;;-1.74;100.00;101189.31;5053288;28;20532;-83
2022/12/03 07:37:05;;;;;;;24.77;12.67;;;;;;;-1.73;100.00;101186.47;5054582;28;20185;-71
2022/12/03 07:39:30;;;;;;;25.83;12.60;;;;;;;-1.76;100.00;101180.69;5057734;28;20264;-74
2022/12/03 07:41:56;;;;;;;30.53;14.17;;;;;;;-1.78;100.00;101182.75;5063771;28;20655;-75
2022/12/03 07:44:21;;;;;;;3.67;3.47;;;;;;;-1.74;100.00;101183.97;5055049;28;20179;-74
2022/12/03 07:46:46;;;;;;;11.13;6.93;;;;;;;-1.80;100.00;101182.97;5053625;28;20622;-78
2022/12/03 07:49:12;;;;;;;22.23;10.43;;;;;;;-1.85;100.00;101177.44;5053089;28;20198;-74
2022/12/03 07:51:37;;;;;;;5.93;2.80;;;;;;;-1.84;100.00;101181.75;5051773;28;20190;-74
2022/12/03 07:54:03;;;;;;;30.20;14.27;;;;;;;-1.90;100.00;101172.69;5053121;28;20174;-73
2022/12/03 07:56:29;;;;;;;22.20;10.30;;;;;;;-1.92;100.00;101180.13;5053015;28;20638;-74
2022/12/03 07:58:54;;;;;;;55.60;16.30;;;;;;;-1.98;100.00;101177.47;5052996;28;20420;-74
2022/12/03 08:01:19;;;;;;;57.00;19.17;;;;;;;-2.00;100.00;101172.31;5052917;28;20635;-74
2022/12/03 08:03:45;;;;;;;27.70;10.47;;;;;;;-2.03;100.00;101170.03;5052679;28;20190;-74
2022/12/03 08:06:10;;;;;;;23.50;8.40;;;;;;;-2.00;100.00;101172.31;5052771;28;20297;-75
2022/12/03 08:08:35;;;;;;;46.83;18.57;;;;;;;-2.03;100.00;101164.69;5052737;28;20203;-73
2022/12/03 08:11:01;;;;;;;32.03;10.93;;;;;;;-2.02;100.00;101162.88;5052695;28;20179;-73
2022/12/03 08:13:27;;;;;;;43.37;18.80;;;;;;;-2.00;100.00;101158.94;5052657;28;20186;-74
2022/12/03 08:15:54;;;;;;;22.47;2.40;;;;;;;-1.97;100.00;101160.38;5052606;28;20182;-75
2022/12/03 08:18:20;;;;;;;29.10;12.40;;;;;;;-1.99;100.00;101165.94;5052515;28;20221;-75
2022/12/03 08:20:48;;;;;;;20.03;12.37;;;;;;;-2.00;100.00;101164.28;5052887;28;20429;-74
2022/12/03 08:23:18;;;;;;;3.30;3.10;;;;;;;-1.92;100.00;101169.41;5051063;28;20430;-76
2022/12/03 08:25:44;;;;;;;30.10;11.03;;;;;;;-1.92;100.00;101155.19;5052422;28;20445;-74
2022/12/03 08:28:12;;;;;;;33.87;16.50;;;;;;;-2.01;100.00;101168.00;5052842;28;20794;-74
2022/12/03 08:30:38;;;;;;;18.50;9.13;;;;;;;-2.00;100.00;101161.63;5052179;28;20414;-78
2022/12/03 08:33:34;;;;;;;92.07;26.63;;;;;;;-1.98;100.00;101162.22;5067810;28;20466;-75
2022/12/03 08:36:04;;;;;;;17.20;5.17;;;;;;;-1.95;100.00;101159.13;5051699;28;20190;-75
2022/12/03 08:38:29;;;;;;;13.13;9.83;;;;;;;-1.94;100.00;101163.44;5054388;28;20417;-75
2022/12/03 08:40:54;;;;;;;20.57;7.83;;;;;;;-1.93;100.00;101159.72;5071992;28;20420;-73
2022/12/03 08:43:26;;;;;;;5.30;3.47;;;;;;;-1.92;100.00;101155.19;5071624;28;20228;-74
2022/12/03 08:45:56;;;;;;;12.53;6.60;;;;;;;-1.89;100.00;101158.25;5072261;28;20206;-75
2022/12/03 08:48:27;;;;;;;18.87;10.23;;;;;;;-1.87;100.00;101158.91;5052692;28;20457;-73
2022/12/03 08:50:55;;;;;;;30.63;11.37;;;;;;;-1.97;100.00;101145.13;5054590;28;20420;-81
2022/12/03 08:53:29;;;;;;;27.43;10.83;;;;;;;-1.98;100.00;101151.53;5051984;28;20924;-88
2022/12/03 08:55:59;;;;;;;13.20;5.90;;;;;;;-1.95;100.00;101151.09;5052594;28;20416;-85
2022/12/03 08:58:45;;;;;;;9.77;6.40;;;;;;;-1.95;100.00;101150.28;5033741;28;21020;-85
2022/12/03 09:01:10;;;;;;;11.17;8.00;;;;;;;-1.91;100.00;101151.47;5033411;28;20516;-85
2022/12/03 09:03:37;;;;;;;10.47;4.50;;;;;;;-1.88;100.00;101153.72;5051225;28;20505;-86
2022/12/03 09:06:03;;;;;;;25.63;10.90;;;;;;;-1.89;100.00;101152.91;5051200;28;20172;-86
2022/12/03 09:08:28;;;;;;;37.47;16.63;;;;;;;-1.91;100.00;101149.63;5051418;28;20464;-86
2022/12/03 09:10:54;;;;;;;19.57;9.13;;;;;;;-1.94;100.00;101157.25;5051218;28;20176;-87
2022/12/03 09:13:19;;;;;;;27.40;10.30;;;;;;;-1.93;100.00;101162.41;5050834;28;20601;-83
2022/12/03 09:15:45;;;;;;;28.20;11.80;;;;;;;-1.92;100.00;101160.56;5033142;28;20205;-85
2022/12/03 09:18:10;;;;;;;40.53;16.43;;;;;;;-1.93;100.00;101151.69;5051080;28;20178;-86
2022/12/03 09:20:35;;;;;;;29.33;9.10;;;;;;;-1.94;100.00;101149.22;5050976;28;20493;-86
2022/12/03 09:23:01;;;;;;;40.03;14.60;;;;;;;-2.00;100.00;101148.22;5050700;28;20167;-83
2022/12/03 09:25:26;;;;;;;25.90;11.03;;;;;;;-2.01;100.00;101149.28;5032999;28;20175;-84
2022/12/03 09:27:51;;;;;;;10.77;9.43;;;;;;;-2.01;100.00;101153.81;5050670;28;20225;-84
2022/12/03 09:30:17;;;;;;;24.77;11.97;;;;;;;-1.96;100.00;101149.44;5050973;28;20175;-83
2022/12/03 09:32:42;;;;;;;8.53;7.23;;;;;;;-2.02;100.00;101149.47;5033254;28;20167;-85
2022/12/03 09:35:08;;;;;;;1.90;1.37;;;;;;;-1.97;100.00;101147.81;5051283;28;20218;-86
2022/12/03 09:37:33;;;;;;;13.00;8.97;;;;;;;-2.00;100.00;101148.22;5033239;28;20237;-80
2022/12/03 09:39:58;;;;;;;10.80;7.30;;;;;;;-1.99;100.00;101147.19;5051296;28;20163;-82
2022/12/03 09:42:24;;;;;;;2.87;2.63;;;;;;;-1.97;100.00;101149.66;5050191;28;20185;-81
2022/12/03 09:44:50;;;;;;;17.13;7.03;;;;;;;-2.03;100.00;101148.63;5050932;28;20163;-86
2022/12/03 09:47:16;;;;;;;4.50;4.17;;;;;;;-2.03;100.00;101143.28;5050964;28;20171;-82
2022/12/03 09:49:42;;;;;;;10.67;5.83;;;;;;;-2.01;100.00;101151.13;5032821;28;20646;-85
2022/12/03 09:52:10;;;;;;;26.67;12.20;;;;;;;-1.96;100.00;101154.81;5051240;28;20465;-84
2022/12/03 09:54:37;;;;;;;38.90;18.13;;;;;;;-2.02;100.00;101144.94;5050745;28;20167;-85
2022/12/03 09:57:03;;;;;;;17.33;8.23;;;;;;;-2.04;100.00;101147.00;5050822;28;21099;-88
2022/12/03 09:59:33;;;;;;;39.83;15.17;;;;;;;-2.07;100.00;101149.28;5051063;28;20429;-81
2022/12/03 10:02:00;;;;;;;34.97;16.03;;;;;;;-2.12;100.00;101140.03;5032940;28;20175;-82
2022/12/03 10:04:27;;;;;;;23.57;10.83;;;;;;;-2.06;100.00;101142.88;5050612;28;20421;-82
2022/12/03 10:06:52;;;;;;;52.17;18.17;;;;;;;-2.10;100.00;101135.28;5032996;28;20430;-83
2022/12/03 10:09:24;;;;;;;18.87;10.20;;;;;;;-2.07;100.00;101130.53;5050851;28;20496;-84
2022/12/03 10:11:49;;;;;;;20.50;11.37;;;;;;;-2.03;100.00;101129.06;5050807;28;20160;-84
2022/12/03 10:14:17;;;;;;;41.40;14.13;;;;;;;-2.03;100.00;101132.56;5050405;28;21017;-83
2022/12/03 10:16:42;;;;;;;7.43;6.00;;;;;;;-2.00;100.00;101126.81;5032528;28;20262;-84
2022/12/03 10:19:16;;;;;;;20.03;11.60;;;;;;;-2.02;100.00;101128.88;5032753;28;20516;-83
2022/12/03 10:21:41;;;;;;;6.40;5.43;;;;;;;-1.94;100.00;101130.50;5033064;28;20532;-83
2022/12/03 10:24:15;;;;;;;7.20;3.17;;;;;;;-1.94;100.00;101122.47;5050211;28;20430;-83
2022/12/03 10:26:42;;;;;;;17.57;4.60;;;;;;;-1.97;100.00;101125.56;5050382;28;20253;-84
2022/12/03 10:29:25;;;;;;;10.37;8.40;;;;;;;-1.98;100.00;101123.94;5050141;28;20457;-84
2022/12/03 10:31:55;;;;;;;13.87;6.87;;;;;;;-1.91;100.00;101122.03;5032368;28;20418;-84
2022/12/03 10:34:31;;;;;;;58.07;14.37;;;;;;;-1.99;100.00;101112.41;5050267;28;20776;-83
2022/12/03 10:37:12;;;;;;;14.97;9.17;;;;;;;-1.93;100.00;101105.34;5032114;28;20421;-82
2022/12/03 10:39:52;;;;;;;30.93;12.03;;;;;;;-1.95;100.00;101108.25;5050222;28;20850;-79
2022/12/03 10:42:18;;;;;;;7.40;3.00;;;;;;;-1.89;100.00;101107.38;5050091;28;20970;-83
2022/12/03 10:44:43;;;;;;;54.87;21.27;;;;;;;-1.91;100.00;101120.16;5050119;28;20421;-82
2022/12/03 10:47:11;;;;;;;14.33;3.13;;;;;;;-1.89;100.00;101111.91;5050329;28;20222;-84
2022/12/03 10:49:37;;;;;;;30.93;10.27;;;;;;;-1.90;100.00;101108.44;5050105;28;20213;-85
2022/12/03 10:52:03;;;;;;;8.77;6.13;;;;;;;-1.82;100.00;101105.50;5050332;28;20461;-84
2022/12/03 10:54:30;;;;;;;20.17;8.23;;;;;;;-1.81;100.00;101107.16;5052737;28;20418;-84
2022/12/03 10:56:56;;;;;;;33.73;12.90;;;;;;;-1.87;100.00;101101.84;5036233;28;20175;-83
2022/12/03 10:59:24;;;;;;;40.03;15.00;;;;;;;-1.89;100.00;101095.84;5053893;28;20417;-81
2022/12/03 11:01:50;;;;;;;19.10;8.17;;;;;;;-1.89;100.00;101094.00;5054132;28;20176;-82
2022/12/03 11:04:23;;;;;;;5.87;5.27;;;;;;;-1.86;100.00;101096.28;5053445;28;20413;-75
2022/12/03 11:06:49;;;;;;;28.03;9.63;;;;;;;-1.84;100.00;101093.38;5035924;28;20425;-82
2022/12/03 11:09:22;;;;;;;11.87;6.93;;;;;;;-1.79;100.00;101093.56;5053718;28;20460;-82
2022/12/03 11:11:48;;;;;;;9.03;5.80;;;;;;;-1.80;100.00;101095.41;5053907;28;20631;-83
2022/12/03 11:14:53;;;;;;;32.20;14.00;;;;;;;-1.85;100.00;101097.91;5053332;28;20453;-85
2022/12/03 11:17:24;;;;;;;15.77;9.07;;;;;;;-1.87;100.00;101085.78;5053347;28;20418;-86
2022/12/03 11:19:50;;;;;;;8.33;7.53;;;;;;;-1.84;100.00;101080.00;5053239;28;20518;-81
2022/12/03 11:22:24;;;;;;;38.30;17.57;;;;;;;-1.90;100.00;101078.97;5053402;28;20744;-86
2022/12/03 11:25:24;;;;;;;6.17;4.67;;;;;;;-1.84;100.00;101074.63;5052923;28;20429;-82
2022/12/03 11:28:11;;;;;;;6.73;6.07;;;;;;;-1.91;100.00;101069.28;5052964;28;20551;-84